createdAt,value
2018-12-01T00:02:21.376Z,95195.00
2018-12-01T00:04:52.729Z,95210.00
2018-12-01T00:07:24.084Z,95205.00
2018-12-01T00:09:55.802Z,95211.00
2018-12-01T00:12:27.355Z,95212.00
2018-12-01T00:14:58.616Z,95215.00
2018-12-01T00:17:30.000Z,95216.00
2018-12-01T00:20:01.311Z,95212.00
2018-12-01T00:29:22.214Z,95201.00
2018-12-01T00:31:53.380Z,95203.00
2018-12-01T00:34:24.675Z,95202.00
2018-12-01T00:36:55.920Z,95196.00
2018-12-01T00:39:27.062Z,95201.00
2018-12-01T00:41:58.098Z,95199.00
2018-12-01T00:44:29.374Z,95199.00
2018-12-01T00:47:00.543Z,95196.00
2018-12-01T00:49:31.667Z,95196.00
2018-12-01T00:52:02.759Z,95190.00
2018-12-01T00:54:33.788Z,95198.00
2018-12-01T00:57:04.803Z,95201.00
2018-12-01T00:59:35.966Z,95199.00
2018-12-01T01:02:07.209Z,95194.00
2018-12-01T01:04:38.182Z,95191.00
2018-12-01T01:07:09.518Z,95189.00
2018-12-01T01:09:40.449Z,95190.00
2018-12-01T01:12:11.341Z,95179.00
2018-12-01T01:14:42.102Z,95182.00
2018-12-01T01:17:13.128Z,95175.00
2018-12-01T01:19:44.021Z,95176.00
2018-12-01T01:22:14.835Z,95164.00
2018-12-01T01:24:45.817Z,95166.00
2018-12-01T01:27:16.874Z,95157.00
2018-12-01T01:29:47.903Z,95159.00
2018-12-01T01:32:18.879Z,95169.00
2018-12-01T01:34:49.858Z,95164.00
2018-12-01T01:37:20.787Z,95144.00
2018-12-01T01:39:51.778Z,95137.00
2018-12-01T01:42:22.814Z,95140.00
2018-12-01T01:44:54.625Z,95148.00
2018-12-01T01:47:25.654Z,95142.00
2018-12-01T01:49:56.706Z,95137.00
2018-12-01T01:52:28.019Z,95132.00
2018-12-01T01:54:59.606Z,95127.00
2018-12-01T01:57:31.094Z,95124.00
2018-12-01T02:00:02.269Z,95115.00
2018-12-01T02:02:33.305Z,95118.00
2018-12-01T02:05:04.560Z,95115.00
2018-12-01T02:07:35.575Z,95116.00
2018-12-01T02:10:07.345Z,95118.00
2018-12-01T02:12:38.521Z,95125.00
2018-12-01T02:15:11.015Z,95123.00
2018-12-01T02:17:42.086Z,95135.00
2018-12-01T02:20:17.302Z,95131.00
2018-12-01T02:22:48.235Z,95125.00
2018-12-01T02:25:19.836Z,95119.00
2018-12-01T02:27:50.909Z,95116.00
2018-12-01T02:30:22.377Z,95110.00
2018-12-01T02:32:53.385Z,95115.00
2018-12-01T02:35:28.939Z,95122.00
2018-12-01T02:37:59.992Z,95117.00
2018-12-01T02:40:30.966Z,95118.00
2018-12-01T02:43:01.812Z,95124.00
2018-12-01T02:45:49.042Z,95124.00
2018-12-01T02:48:19.950Z,95126.00
2018-12-01T02:50:51.233Z,95130.00
2018-12-01T02:53:22.127Z,95127.00
2018-12-01T02:55:52.938Z,95132.00
2018-12-01T02:58:23.792Z,95131.00
2018-12-01T03:00:54.661Z,95132.00
2018-12-01T03:03:25.476Z,95129.00
2018-12-01T03:05:56.236Z,95129.00
2018-12-01T03:08:27.112Z,95124.00
2018-12-01T03:10:58.105Z,95124.00
2018-12-01T03:13:28.920Z,95125.00
2018-12-01T03:15:59.865Z,95121.00
2018-12-01T03:18:30.618Z,95128.00
2018-12-01T03:21:01.443Z,95123.00
2018-12-01T03:23:32.305Z,95130.00
2018-12-01T03:26:06.956Z,95127.00
2018-12-01T03:28:38.216Z,95133.00
2018-12-01T03:31:09.007Z,95136.00
2018-12-01T03:33:39.992Z,95140.00
2018-12-01T03:36:11.148Z,95141.00
2018-12-01T03:38:42.027Z,95132.00
2018-12-01T03:41:12.951Z,95126.00
2018-12-01T03:43:43.807Z,95129.00
2018-12-01T03:46:14.758Z,95130.00
2018-12-01T03:48:45.712Z,95134.00
2018-12-01T03:51:16.593Z,95136.00
2018-12-01T03:53:47.823Z,95141.00
2018-12-01T03:56:18.806Z,95138.00
2018-12-01T03:58:49.668Z,95146.00
2018-12-01T04:01:20.487Z,95147.00
2018-12-01T04:03:51.391Z,95148.00
2018-12-01T04:06:22.198Z,95138.00
2018-12-01T04:08:53.011Z,95147.00
2018-12-01T04:11:23.954Z,95153.00
2018-12-01T04:13:55.146Z,95153.00
2018-12-01T04:16:26.140Z,95162.00
2018-12-01T04:18:57.114Z,95166.00
2018-12-01T04:21:28.137Z,95161.00
2018-12-01T04:23:59.211Z,95156.00
2018-12-01T04:26:30.021Z,95165.00
2018-12-01T04:29:00.923Z,95165.00
2018-12-01T04:31:31.884Z,95173.00
2018-12-01T04:34:02.875Z,95177.00
2018-12-01T04:36:33.762Z,95182.00
2018-12-01T04:39:05.309Z,95175.00
2018-12-01T04:41:36.906Z,95177.00
2018-12-01T04:44:07.861Z,95176.00
2018-12-01T04:46:38.763Z,95178.00
2018-12-01T04:49:09.612Z,95190.00
2018-12-01T04:51:40.805Z,95194.00
2018-12-01T04:54:11.711Z,95194.00
2018-12-01T04:56:42.604Z,95200.00
2018-12-01T04:59:13.560Z,95202.00
2018-12-01T05:01:44.472Z,95199.00
2018-12-01T05:04:15.278Z,95207.00
2018-12-01T05:06:46.157Z,95203.00
2018-12-01T05:09:17.124Z,95210.00
2018-12-01T05:11:47.928Z,95217.00
2018-12-01T05:14:18.901Z,95218.00
2018-12-01T05:16:49.843Z,95217.00
2018-12-01T05:19:20.787Z,95226.00
2018-12-01T05:21:51.643Z,95234.00
2018-12-01T05:24:22.635Z,95224.00
2018-12-01T05:26:53.484Z,95231.00
2018-12-01T05:29:24.613Z,95218.00
2018-12-01T05:31:55.632Z,95227.00
2018-12-01T05:34:26.660Z,95231.00
2018-12-01T05:36:57.545Z,95230.00
2018-12-01T05:39:28.496Z,95236.00
2018-12-01T05:41:59.334Z,95241.00
2018-12-01T05:44:30.246Z,95246.00
2018-12-01T05:47:01.398Z,95235.00
2018-12-01T05:49:32.313Z,95238.00
2018-12-01T05:52:03.409Z,95234.00
2018-12-01T05:54:34.458Z,95238.00
2018-12-01T05:57:05.747Z,95240.00
2018-12-01T05:59:36.706Z,95237.00
2018-12-01T06:02:08.291Z,95246.00
2018-12-01T06:04:39.320Z,95247.00
2018-12-01T06:07:10.515Z,95246.00
2018-12-01T06:09:41.707Z,95243.00
2018-12-01T06:12:12.722Z,95243.00
2018-12-01T06:14:43.782Z,95240.00
2018-12-01T06:17:14.788Z,95240.00
2018-12-01T06:19:45.770Z,95236.00
2018-12-01T06:22:16.987Z,95234.00
2018-12-01T06:24:48.329Z,95235.00
2018-12-01T06:27:19.411Z,95228.00
2018-12-01T06:29:50.405Z,95234.00
2018-12-01T06:32:21.860Z,95226.00
2018-12-01T06:34:53.715Z,95219.00
2018-12-01T06:37:24.975Z,95222.00
2018-12-01T06:39:55.944Z,95227.00
2018-12-01T06:42:27.072Z,95228.00
2018-12-01T06:44:58.459Z,95226.00
2018-12-01T06:47:29.758Z,95215.00
2018-12-01T06:50:00.657Z,95218.00
2018-12-01T06:52:31.693Z,95221.00
2018-12-01T06:55:02.930Z,95217.00
2018-12-01T06:57:33.945Z,95224.00
2018-12-01T07:00:08.770Z,95223.00
2018-12-01T07:02:39.822Z,95226.00
2018-12-01T07:05:20.567Z,95231.00
2018-12-01T07:07:51.692Z,95238.00
2018-12-01T07:10:23.808Z,95245.00
2018-12-01T07:13:01.865Z,95242.00
2018-12-01T07:15:38.462Z,95241.00
2018-12-01T07:18:25.826Z,95253.00
2018-12-01T07:20:57.142Z,95257.00
2018-12-01T07:23:28.395Z,95260.00
2018-12-01T07:26:00.287Z,95256.00
2018-12-01T07:28:32.478Z,95256.00
2018-12-01T07:31:03.512Z,95270.00
2018-12-01T07:33:34.679Z,95265.00
2018-12-01T07:36:06.027Z,95266.00
2018-12-01T07:38:37.199Z,95260.00
2018-12-01T07:41:08.322Z,95254.00
2018-12-01T07:43:39.679Z,95258.00
2018-12-01T07:46:10.601Z,95249.00
2018-12-01T07:48:41.552Z,95244.00
2018-12-01T07:51:13.568Z,95240.00
2018-12-01T07:53:44.483Z,95245.00
2018-12-01T07:56:15.433Z,95250.00
2018-12-01T07:58:46.805Z,95253.00
2018-12-01T08:01:17.812Z,95245.00
2018-12-01T08:03:49.074Z,95248.00
2018-12-01T08:06:20.124Z,95242.00
2018-12-01T08:08:52.163Z,95245.00
2018-12-01T08:11:23.721Z,95236.00
2018-12-01T08:13:55.024Z,95238.00
2018-12-01T08:16:26.310Z,95227.00
2018-12-01T08:18:57.242Z,95221.00
2018-12-01T08:21:28.236Z,95228.00
2018-12-01T08:23:59.309Z,95235.00
2018-12-01T08:26:30.437Z,95236.00
2018-12-01T08:29:01.495Z,95228.00
2018-12-01T08:31:32.436Z,95237.00
2018-12-01T08:34:03.293Z,95252.00
2018-12-01T08:36:46.412Z,95243.00
2018-12-01T08:39:17.330Z,95244.00
2018-12-01T08:41:48.313Z,95242.00
2018-12-01T08:44:19.194Z,95237.00
2018-12-01T08:46:50.294Z,95233.00
2018-12-01T08:49:21.491Z,95228.00
2018-12-01T08:51:52.811Z,95224.00
2018-12-01T08:54:24.052Z,95229.00
2018-12-01T08:56:55.522Z,95233.00
2018-12-01T08:59:27.548Z,95238.00
2018-12-01T09:01:59.302Z,95229.00
2018-12-01T09:04:30.690Z,95224.00
2018-12-01T09:07:02.175Z,95226.00
2018-12-01T09:09:33.313Z,95223.00
2018-12-01T09:12:04.679Z,95233.00
2018-12-01T09:14:36.372Z,95232.00
2018-12-01T09:17:08.387Z,95226.00
2018-12-01T09:19:39.437Z,95226.00
2018-12-01T09:22:10.386Z,95218.00
2018-12-01T09:24:41.430Z,95224.00
2018-12-01T09:27:12.197Z,95225.00
2018-12-01T09:29:43.354Z,95227.00
2018-12-01T09:32:14.378Z,95225.00
2018-12-01T09:34:45.453Z,95227.00
2018-12-01T09:37:16.488Z,95221.00
2018-12-01T09:39:47.523Z,95223.00
2018-12-01T09:42:18.520Z,95223.00
2018-12-01T09:44:49.918Z,95220.00
2018-12-01T09:47:21.859Z,95216.00
2018-12-01T09:49:54.579Z,95213.00
2018-12-01T09:52:26.144Z,95214.00
2018-12-01T09:54:57.624Z,95211.00
2018-12-01T09:57:29.126Z,95216.00
2018-12-01T10:00:00.490Z,95211.00
2018-12-01T10:02:31.971Z,95205.00
2018-12-01T10:05:03.571Z,95198.00
2018-12-01T10:07:35.139Z,95191.00
2018-12-01T10:10:11.166Z,95196.00
2018-12-01T10:12:42.331Z,95195.00
2018-12-01T10:15:19.939Z,95200.00
2018-12-01T10:17:51.420Z,95204.00
2018-12-01T10:20:28.825Z,95200.00
2018-12-01T10:23:01.291Z,95190.00
2018-12-01T10:25:32.640Z,95185.00
2018-12-01T10:28:04.235Z,95178.00
2018-12-01T10:30:35.597Z,95174.00
2018-12-01T10:33:07.678Z,95179.00
2018-12-01T10:35:39.619Z,95183.00
2018-12-01T10:38:16.442Z,95175.00
2018-12-01T10:40:48.217Z,95174.00
2018-12-01T10:43:19.901Z,95167.00
2018-12-01T10:45:51.375Z,95170.00
2018-12-01T10:48:22.739Z,95170.00
2018-12-01T10:50:54.404Z,95169.00
2018-12-01T10:53:25.796Z,95171.00
2018-12-01T10:55:57.544Z,95165.00
2018-12-01T10:58:29.241Z,95169.00
2018-12-01T11:01:06.775Z,95169.00
2018-12-01T11:03:46.188Z,95168.00
2018-12-01T11:06:19.679Z,95170.00
2018-12-01T11:08:52.248Z,95165.00
2018-12-01T11:11:24.145Z,95170.00
2018-12-01T11:13:56.339Z,95172.00
2018-12-01T11:16:28.000Z,95169.00
2018-12-01T11:18:59.377Z,95165.00
2018-12-01T11:21:31.042Z,95165.00
2018-12-01T11:24:02.475Z,95158.00
2018-12-01T11:26:35.366Z,95160.00
2018-12-01T11:29:07.527Z,95157.00
2018-12-01T11:31:38.784Z,95164.00
2018-12-01T11:34:10.701Z,95160.00
2018-12-01T11:36:42.363Z,95165.00
2018-12-01T11:39:13.993Z,95160.00
2018-12-01T11:41:46.030Z,95158.00
2018-12-01T11:44:17.207Z,95155.00
2018-12-01T11:46:48.620Z,95150.00
2018-12-01T11:49:19.854Z,95156.00
2018-12-01T11:51:51.505Z,95156.00
2018-12-01T11:54:23.056Z,95154.00
2018-12-01T11:56:54.381Z,95161.00
2018-12-01T11:59:26.527Z,95161.00
2018-12-01T12:02:00.483Z,95160.00
2018-12-01T12:04:29.692Z,95155.00
2018-12-01T12:07:01.586Z,95159.00
2018-12-01T12:09:33.156Z,95158.00
2018-12-01T12:12:05.083Z,95157.00
2018-12-01T12:14:36.604Z,95156.00
2018-12-01T12:17:08.141Z,95162.00
2018-12-01T12:19:39.657Z,95159.00
2018-12-01T12:22:11.061Z,95162.00
2018-12-01T12:24:42.350Z,95163.00
2018-12-01T12:27:13.401Z,95161.00
2018-12-01T12:29:44.881Z,95154.00
2018-12-01T12:32:16.259Z,95162.00
2018-12-01T12:34:47.820Z,95166.00
2018-12-01T12:37:19.220Z,95158.00
2018-12-01T12:39:50.811Z,95158.00
2018-12-01T12:42:21.903Z,95154.00
2018-12-01T12:44:53.298Z,95146.00
2018-12-01T12:47:24.785Z,95145.00
2018-12-01T12:49:56.088Z,95151.00
2018-12-01T12:52:27.440Z,95141.00
2018-12-01T12:54:58.537Z,95141.00
2018-12-01T12:57:29.745Z,95144.00
2018-12-01T13:00:01.374Z,95142.00
2018-12-01T13:02:32.817Z,95156.00
2018-12-01T13:05:04.293Z,95160.00
2018-12-01T13:07:35.638Z,95163.00
2018-12-01T13:10:13.956Z,95167.00
2018-12-01T13:12:45.049Z,95167.00
2018-12-01T13:15:17.396Z,95165.00
2018-12-01T13:17:49.045Z,95169.00
2018-12-01T13:20:24.680Z,95169.00
2018-12-01T13:23:01.209Z,95162.00
2018-12-01T13:25:32.688Z,95166.00
2018-12-01T13:28:10.421Z,95168.00
2018-12-01T13:30:52.770Z,95168.00
2018-12-01T13:33:24.720Z,95176.00
2018-12-01T13:35:56.553Z,95174.00
2018-12-01T13:38:28.419Z,95177.00
2018-12-01T13:40:59.635Z,95174.00
2018-12-01T13:43:30.873Z,95179.00
2018-12-01T13:46:02.329Z,95184.00
2018-12-01T13:48:34.705Z,95189.00
2018-12-01T13:51:06.697Z,95185.00
2018-12-01T13:53:39.532Z,95187.00
2018-12-01T13:56:11.310Z,95195.00
2018-12-01T13:58:42.608Z,95200.00
2018-12-01T14:01:14.278Z,95201.00
2018-12-01T14:03:46.351Z,95197.00
2018-12-01T14:06:18.218Z,95199.00
2018-12-01T14:08:50.373Z,95198.00
2018-12-01T14:11:22.234Z,95198.00
2018-12-01T14:13:53.954Z,95202.00
2018-12-01T14:16:25.343Z,95201.00
2018-12-01T14:18:57.294Z,95197.00
2018-12-01T14:21:29.148Z,95200.00
2018-12-01T14:24:00.532Z,95191.00
2018-12-01T14:26:32.022Z,95192.00
2018-12-01T14:29:03.359Z,95189.00
2018-12-01T14:31:34.921Z,95192.00
2018-12-01T14:34:06.513Z,95196.00
2018-12-01T14:36:39.072Z,95196.00
2018-12-01T14:39:11.161Z,95206.00
2018-12-01T14:41:42.669Z,95211.00
2018-12-01T14:44:14.213Z,95209.00
2018-12-01T14:46:45.542Z,95209.00
2018-12-01T14:49:16.914Z,95215.00
2018-12-01T14:51:48.066Z,95211.00
2018-12-01T14:54:20.151Z,95219.00
2018-12-01T14:56:51.470Z,95223.00
2018-12-01T14:59:22.805Z,95221.00
2018-12-01T15:01:53.984Z,95221.00
2018-12-01T15:04:25.424Z,95226.00
2018-12-01T15:06:56.742Z,95222.00
2018-12-01T15:09:27.972Z,95221.00
2018-12-01T15:11:59.727Z,95219.00
2018-12-01T15:14:31.973Z,95226.00
2018-12-01T15:17:03.443Z,95220.00
2018-12-01T15:19:35.692Z,95226.00
2018-12-01T15:22:07.462Z,95227.00
2018-12-01T15:24:38.987Z,95225.00
2018-12-01T15:27:12.486Z,95229.00
2018-12-01T15:29:45.154Z,95238.00
2018-12-01T15:32:16.683Z,95232.00
2018-12-01T15:34:48.783Z,95243.00
2018-12-01T15:37:20.506Z,95246.00
2018-12-01T15:39:52.486Z,95245.00
2018-12-01T15:42:24.660Z,95246.00
2018-12-01T15:44:58.409Z,95248.00
2018-12-01T15:47:30.123Z,95240.00
2018-12-01T15:50:02.205Z,95248.00
2018-12-01T15:52:34.771Z,95253.00
2018-12-01T15:55:09.749Z,95258.00
2018-12-01T15:57:41.573Z,95262.00
2018-12-01T16:00:19.012Z,95267.00
2018-12-01T16:02:50.716Z,95259.00
2018-12-01T16:05:24.229Z,95258.00
2018-12-01T16:07:59.310Z,95257.00
2018-12-01T16:10:31.098Z,95265.00
2018-12-01T16:13:14.895Z,95260.00
2018-12-01T16:15:49.684Z,95266.00
2018-12-01T16:18:21.810Z,95265.00
2018-12-01T16:20:54.418Z,95266.00
2018-12-01T16:23:26.621Z,95271.00
2018-12-01T16:25:58.781Z,95277.00
2018-12-01T16:28:31.731Z,95273.00
2018-12-01T16:31:03.467Z,95273.00
2018-12-01T16:33:35.777Z,95277.00
2018-12-01T16:36:08.824Z,95270.00
2018-12-01T16:38:43.450Z,95271.00
2018-12-01T16:41:29.662Z,95274.00
2018-12-01T16:44:03.155Z,95274.00
2018-12-01T16:46:38.070Z,95272.00
2018-12-01T16:49:10.299Z,95282.00
2018-12-01T16:51:41.956Z,95284.00
2018-12-01T16:54:14.518Z,95281.00
2018-12-01T16:56:46.295Z,95281.00
2018-12-01T16:59:19.383Z,95283.00
2018-12-01T17:01:54.155Z,95287.00
2018-12-01T17:04:26.293Z,95282.00
2018-12-01T17:07:01.034Z,95295.00
2018-12-01T17:09:33.454Z,95294.00
2018-12-01T17:12:05.889Z,95290.00
2018-12-01T17:14:39.832Z,95302.00
2018-12-01T17:17:13.257Z,95300.00
2018-12-01T17:19:45.333Z,95304.00
2018-12-01T17:22:17.477Z,95307.00
2018-12-01T17:24:49.631Z,95304.00
2018-12-01T17:27:21.755Z,95306.00
2018-12-01T17:29:53.627Z,95310.00
2018-12-01T17:32:25.794Z,95314.00
2018-12-01T17:34:58.093Z,95313.00
2018-12-01T17:37:31.517Z,95314.00
2018-12-01T17:40:03.166Z,95311.00
2018-12-01T17:42:34.811Z,95307.00
2018-12-01T17:45:08.243Z,95306.00
2018-12-01T17:47:40.227Z,95302.00
2018-12-01T17:50:15.790Z,95299.00
2018-12-01T17:52:51.870Z,95291.00
2018-12-01T17:55:23.937Z,95294.00
2018-12-01T17:57:57.132Z,95284.00
2018-12-01T18:00:30.285Z,95283.00
2018-12-01T18:03:03.103Z,95284.00
2018-12-01T18:05:41.308Z,95285.00
2018-12-01T18:08:20.581Z,95285.00
2018-12-01T18:10:54.195Z,95281.00
2018-12-01T18:13:26.026Z,95287.00
2018-12-01T18:15:57.499Z,95291.00
2018-12-01T18:18:29.418Z,95291.00
2018-12-01T18:21:00.947Z,95294.00
2018-12-01T18:23:32.848Z,95296.00
2018-12-01T18:26:04.177Z,95296.00
2018-12-01T18:28:41.229Z,95285.00
2018-12-01T18:31:17.210Z,95291.00
2018-12-01T18:33:52.388Z,95300.00
2018-12-01T18:36:24.989Z,95306.00
2018-12-01T18:38:56.955Z,95306.00
2018-12-01T18:41:28.881Z,95306.00
2018-12-01T18:44:00.781Z,95294.00
2018-12-01T18:46:32.296Z,95301.00
2018-12-01T18:49:03.552Z,95301.00
2018-12-01T18:51:34.759Z,95297.00
2018-12-01T18:54:06.219Z,95300.00
2018-12-01T18:56:37.355Z,95296.00
2018-12-01T18:59:08.409Z,95296.00
2018-12-01T19:01:40.691Z,95295.00
2018-12-01T19:04:12.034Z,95301.00
2018-12-01T19:06:43.285Z,95306.00
2018-12-01T19:09:14.524Z,95314.00
2018-12-01T19:11:45.612Z,95318.00
2018-12-01T19:14:17.658Z,95311.00
2018-12-01T19:16:50.013Z,95316.00
2018-12-01T19:19:21.272Z,95326.00
2018-12-01T19:21:52.389Z,95324.00
2018-12-01T19:24:23.813Z,95328.00
2018-12-01T19:26:55.130Z,95331.00
2018-12-01T19:29:26.269Z,95338.00
2018-12-01T19:31:57.397Z,95327.00
2018-12-01T19:34:29.197Z,95327.00
2018-12-01T19:37:00.325Z,95323.00
2018-12-01T19:39:31.566Z,95334.00
2018-12-01T19:42:02.819Z,95330.00
2018-12-01T19:44:33.977Z,95337.00
2018-12-01T19:47:05.264Z,95332.00
2018-12-01T19:49:36.522Z,95336.00
2018-12-01T19:52:07.798Z,95334.00
2018-12-01T19:54:42.497Z,95334.00
2018-12-01T19:57:14.053Z,95329.00
2018-12-01T19:59:45.268Z,95329.00
2018-12-01T20:02:16.474Z,95325.00
2018-12-01T20:04:47.614Z,95318.00
2018-12-01T20:07:18.559Z,95322.00
2018-12-01T20:09:49.787Z,95325.00
2018-12-01T20:12:20.833Z,95317.00
2018-12-01T20:14:52.135Z,95322.00
2018-12-01T20:17:23.546Z,95325.00
2018-12-01T20:19:54.720Z,95322.00
2018-12-01T20:22:26.065Z,95317.00
2018-12-01T20:24:57.325Z,95310.00
2018-12-01T20:27:28.585Z,95313.00
2018-12-01T20:30:00.057Z,95313.00
2018-12-01T20:32:32.008Z,95314.00
2018-12-01T20:35:03.228Z,95321.00
2018-12-01T20:37:34.973Z,95321.00
2018-12-01T20:40:11.637Z,95317.00
2018-12-01T20:42:42.820Z,95327.00
2018-12-01T20:45:15.053Z,95326.00
2018-12-01T20:47:46.099Z,95330.00
2018-12-01T20:50:17.983Z,95326.00
2018-12-01T20:52:49.791Z,95327.00
2018-12-01T20:55:26.501Z,95323.00
2018-12-01T20:58:00.333Z,95319.00
2018-12-01T21:00:31.558Z,95317.00
2018-12-01T21:03:02.768Z,95323.00
2018-12-01T21:05:34.172Z,95318.00
2018-12-01T21:08:05.498Z,95326.00
2018-12-01T21:10:39.489Z,95329.00
2018-12-01T21:13:10.974Z,95325.00
2018-12-01T21:15:42.511Z,95329.00
2018-12-01T21:18:14.368Z,95331.00
2018-12-01T21:20:45.372Z,95333.00
2018-12-01T21:23:16.482Z,95331.00
2018-12-01T21:25:47.654Z,95336.00
2018-12-01T21:28:18.809Z,95334.00
2018-12-01T21:30:50.981Z,95336.00
2018-12-01T21:33:30.178Z,95339.00
2018-12-01T21:36:01.325Z,95342.00
2018-12-01T21:38:32.378Z,95341.00
2018-12-01T21:41:03.621Z,95340.00
2018-12-01T21:43:34.826Z,95346.00
2018-12-01T21:46:06.165Z,95351.00
2018-12-01T21:48:37.094Z,95353.00
2018-12-01T21:51:08.328Z,95355.00
2018-12-01T21:53:39.497Z,95349.00
2018-12-01T21:56:10.610Z,95352.00
2018-12-01T21:58:41.676Z,95355.00
2018-12-01T22:01:12.903Z,95350.00
2018-12-01T22:03:44.614Z,95353.00
2018-12-01T22:06:15.747Z,95364.00
2018-12-01T22:08:47.049Z,95355.00
2018-12-01T22:11:18.601Z,95361.00
2018-12-01T22:13:52.797Z,95360.00
2018-12-01T22:16:24.728Z,95357.00
2018-12-01T22:18:55.868Z,95359.00
2018-12-01T22:21:27.015Z,95359.00
2018-12-01T22:23:58.128Z,95360.00
2018-12-01T22:26:29.619Z,95361.00
2018-12-01T22:29:01.612Z,95360.00
2018-12-01T22:31:33.246Z,95365.00
2018-12-01T22:34:04.503Z,95371.00
2018-12-01T22:36:35.632Z,95366.00
2018-12-01T22:39:11.229Z,95363.00
2018-12-01T22:41:42.557Z,95359.00
2018-12-01T22:44:13.859Z,95359.00
2018-12-01T22:46:45.156Z,95360.00
2018-12-01T22:49:16.101Z,95351.00
2018-12-01T22:51:47.207Z,95348.00
2018-12-01T22:54:18.068Z,95341.00
2018-12-01T22:56:50.128Z,95347.00
2018-12-01T22:59:21.296Z,95341.00
2018-12-01T23:01:52.424Z,95350.00
2018-12-01T23:04:23.501Z,95347.00
2018-12-01T23:06:54.748Z,95344.00
2018-12-01T23:09:25.880Z,95345.00
2018-12-01T23:11:56.937Z,95345.00
2018-12-01T23:14:27.935Z,95341.00
2018-12-01T23:16:58.953Z,95327.00
2018-12-01T23:19:30.029Z,95333.00
2018-12-01T23:22:01.140Z,95339.00
2018-12-01T23:24:31.983Z,95345.00
2018-12-01T23:27:02.965Z,95347.00
2018-12-01T23:29:34.414Z,95344.00
2018-12-01T23:32:06.098Z,95353.00
2018-12-01T23:34:37.024Z,95349.00
2018-12-01T23:37:08.719Z,95348.00
2018-12-01T23:39:39.749Z,95347.00
2018-12-01T23:42:10.987Z,95347.00
2018-12-01T23:44:42.110Z,95343.00
2018-12-01T23:47:13.563Z,95343.00
2018-12-01T23:49:44.456Z,95341.00
2018-12-01T23:52:15.526Z,95342.00
2018-12-01T23:54:46.594Z,95341.00
2018-12-01T23:57:17.512Z,95343.00
2018-12-01T23:59:48.571Z,95339.00
